createdAt,value
2023-05-20T00:00:15.815Z,96654.91
2023-05-20T00:02:44.151Z,96649.13
2023-05-20T00:05:14.230Z,96700.75
2023-05-20T00:07:42.496Z,96674.38
2023-05-20T00:10:12.218Z,96614.94
2023-05-20T00:12:40.839Z,96660.75
2023-05-20T00:15:13.204Z,96687.88
2023-05-20T00:17:41.614Z,96652.72
2023-05-20T00:20:10.747Z,96625.47
2023-05-20T00:22:40.333Z,96655.25
2023-05-20T00:25:09.748Z,96696.34
2023-05-20T00:27:37.981Z,96813.47
2023-05-20T00:30:07.975Z,96623.41
2023-05-20T00:32:36.365Z,96674.03
2023-05-20T00:35:05.589Z,96632.13
2023-05-20T00:37:33.851Z,96601.34
2023-05-20T00:40:09.865Z,96683.88
2023-05-20T00:42:38.089Z,96662.03
2023-05-20T00:45:07.539Z,96648.25
2023-05-20T00:47:37.631Z,96751.06
2023-05-20T00:50:07.313Z,96673.31
2023-05-20T00:52:37.152Z,96620.13
2023-05-20T00:55:07.548Z,96661.13
2023-05-20T00:57:35.970Z,96682.25
2023-05-20T01:00:09.224Z,96659.09
2023-05-20T01:02:37.622Z,96630.63
2023-05-20T01:05:06.996Z,96666.47
2023-05-20T01:07:35.815Z,96643.38
2023-05-20T01:10:04.697Z,96652.88
2023-05-20T01:12:39.240Z,96693.88
2023-05-20T01:15:11.343Z,96610.75
2023-05-20T01:17:45.073Z,96651.78
2023-05-20T01:20:15.820Z,96605.88
2023-05-20T01:22:50.988Z,96676.13
2023-05-20T01:25:19.340Z,96610.63
2023-05-20T01:27:48.959Z,96658.31
2023-05-20T01:30:18.062Z,96631.03
2023-05-20T01:32:52.204Z,96647.50
2023-05-20T01:35:21.780Z,96621.41
2023-05-20T01:37:54.577Z,96614.41
2023-05-20T01:40:24.836Z,96624.03
2023-05-20T01:42:55.219Z,96636.44
2023-05-20T01:45:25.662Z,96655.91
2023-05-20T01:47:54.499Z,96605.06
2023-05-20T01:50:23.032Z,96647.59
2023-05-20T01:52:52.615Z,96653.09
2023-05-20T01:55:21.072Z,96604.47
2023-05-20T01:57:49.366Z,96609.72
2023-05-20T02:00:18.062Z,96620.94
2023-05-20T02:02:46.532Z,96656.72
2023-05-20T02:05:15.083Z,96605.84
2023-05-20T02:07:48.150Z,96624.78
2023-05-20T02:10:18.004Z,96625.78
2023-05-20T02:12:49.309Z,96631.75
2023-05-20T02:15:17.775Z,96623.00
2023-05-20T02:17:47.377Z,96615.34
2023-05-20T02:20:16.566Z,96596.50
2023-05-20T02:22:44.835Z,96605.56
2023-05-20T02:25:13.612Z,96651.06
2023-05-20T02:27:43.277Z,96655.72
2023-05-20T02:30:12.167Z,96573.25
2023-05-20T02:32:40.483Z,96577.25
2023-05-20T02:35:09.439Z,96574.78
2023-05-20T02:37:39.018Z,96645.47
2023-05-20T02:40:10.364Z,96602.94
2023-05-20T02:42:44.778Z,96597.31
2023-05-20T02:45:13.118Z,96607.25
2023-05-20T02:47:41.433Z,96639.19
2023-05-20T02:50:10.244Z,96599.28
2023-05-20T02:52:40.020Z,96610.16
2023-05-20T02:55:09.609Z,96606.81
2023-05-20T02:57:39.137Z,96566.63
2023-05-20T03:00:12.127Z,96604.38
2023-05-20T03:02:40.670Z,96608.47
2023-05-20T03:05:10.917Z,96622.84
2023-05-20T03:07:39.564Z,96642.78
2023-05-20T03:10:10.709Z,96600.19
2023-05-20T03:12:40.661Z,96612.31
2023-05-20T03:15:12.740Z,96592.69
2023-05-20T03:17:41.411Z,96600.22
2023-05-20T03:20:12.824Z,96631.59
2023-05-20T03:22:42.379Z,96621.03
2023-05-20T03:25:11.737Z,96593.38
2023-05-20T03:27:40.320Z,96635.75
2023-05-20T03:30:12.654Z,96598.34
2023-05-20T03:32:41.457Z,96621.75
2023-05-20T03:35:10.360Z,96611.84
2023-05-20T03:37:39.838Z,96639.53
2023-05-20T03:40:10.464Z,96593.06
2023-05-20T03:42:40.127Z,96620.06
2023-05-20T03:45:11.961Z,96600.31
2023-05-20T03:47:48.888Z,96592.81
2023-05-20T03:50:19.272Z,96623.41
2023-05-20T03:52:48.154Z,96616.75
2023-05-20T03:55:20.495Z,96613.00
2023-05-20T03:57:49.164Z,96612.88
2023-05-20T04:00:19.172Z,96622.78
2023-05-20T04:02:47.397Z,96596.06
2023-05-20T04:05:44.690Z,96608.28
2023-05-20T04:08:19.061Z,96632.69
2023-05-20T04:10:48.011Z,96600.03
2023-05-20T04:13:16.444Z,96575.78
2023-05-20T04:15:51.674Z,96607.59
2023-05-20T04:18:20.058Z,96614.22
2023-05-20T04:20:48.889Z,96600.66
2023-05-20T04:23:17.429Z,96606.72
2023-05-20T04:25:46.126Z,96554.69
2023-05-20T04:28:16.464Z,96576.22
2023-05-20T04:30:45.236Z,96572.31
2023-05-20T04:33:16.165Z,96618.28
2023-05-20T04:35:45.010Z,96579.13
2023-05-20T04:38:13.331Z,96590.03
2023-05-20T04:40:41.860Z,96629.22
2023-05-20T04:43:11.115Z,96584.22
2023-05-20T04:45:40.387Z,96633.41
2023-05-20T04:48:09.645Z,96595.91
2023-05-20T04:50:40.521Z,96599.06
2023-05-20T04:53:08.964Z,96533.63
2023-05-20T04:55:39.093Z,96577.84
2023-05-20T04:58:08.271Z,96585.88
2023-05-20T05:00:36.787Z,96556.88
2023-05-20T05:03:05.198Z,96559.56
2023-05-20T05:05:34.119Z,96588.47
2023-05-20T05:08:04.082Z,96575.75
2023-05-20T05:10:33.294Z,96593.91
2023-05-20T05:13:01.815Z,96573.78
2023-05-20T05:15:30.689Z,96518.25
2023-05-20T05:17:59.268Z,96569.53
2023-05-20T05:20:27.590Z,96574.53
2023-05-20T05:22:56.149Z,96561.88
2023-05-20T05:25:26.151Z,96551.13
2023-05-20T05:27:55.362Z,96565.09
2023-05-20T05:30:24.894Z,96558.00
2023-05-20T05:32:53.401Z,96570.13
2023-05-20T05:35:21.961Z,96588.72
2023-05-20T05:37:50.458Z,96594.38
2023-05-20T05:40:19.040Z,96546.22
2023-05-20T05:42:49.824Z,96556.41
2023-05-20T05:45:18.328Z,96562.22
2023-05-20T05:47:46.613Z,96560.66
2023-05-20T05:50:15.984Z,96578.72
2023-05-20T05:52:44.320Z,96435.69
2023-05-20T05:55:13.795Z,96591.47
2023-05-20T05:57:43.142Z,96609.44
2023-05-20T06:00:18.224Z,96536.28
2023-05-20T06:02:47.228Z,96553.72
2023-05-20T06:05:31.400Z,96557.59
2023-05-20T06:08:00.423Z,96570.63
2023-05-20T06:10:28.794Z,96592.41
2023-05-20T06:12:57.316Z,96590.81
2023-05-20T06:15:27.803Z,96508.03
2023-05-20T06:17:56.212Z,96528.50
2023-05-20T06:20:24.883Z,96578.47
2023-05-20T06:22:53.592Z,96544.03
2023-05-20T06:25:23.133Z,96551.81
2023-05-20T06:27:52.035Z,96553.22
2023-05-20T06:30:21.509Z,96561.69
2023-05-20T06:32:51.327Z,96555.13
2023-05-20T06:35:20.366Z,96589.44
2023-05-20T06:37:48.759Z,96575.19
2023-05-20T06:40:18.201Z,96490.34
2023-05-20T06:42:46.544Z,96568.00
2023-05-20T06:45:15.187Z,96596.88
2023-05-20T06:47:48.094Z,96555.44
2023-05-20T06:50:18.098Z,96510.69
2023-05-20T06:52:46.405Z,96521.13
2023-05-20T06:55:15.918Z,96554.31
2023-05-20T06:57:44.939Z,96531.53
2023-05-20T07:00:15.227Z,96543.16
2023-05-20T07:02:44.493Z,96479.84
2023-05-20T07:05:14.435Z,96519.91
2023-05-20T07:07:44.084Z,96500.75
2023-05-20T07:10:12.758Z,96490.19
2023-05-20T07:12:41.020Z,96564.09
2023-05-20T07:15:10.672Z,96460.03
2023-05-20T07:17:38.974Z,96489.47
2023-05-20T07:20:09.171Z,96529.91
2023-05-20T07:22:37.840Z,96537.31
2023-05-20T07:25:14.434Z,96521.38
2023-05-20T07:27:42.722Z,96511.97
2023-05-20T07:30:11.738Z,96512.41
2023-05-20T07:32:42.384Z,96512.78
2023-05-20T07:35:10.880Z,96510.75
2023-05-20T07:37:39.269Z,96456.97
2023-05-20T07:40:10.008Z,96512.78
2023-05-20T07:42:41.147Z,96493.53
2023-05-20T07:45:11.813Z,96477.16
2023-05-20T07:47:41.890Z,96509.69
2023-05-20T07:50:11.075Z,96516.06
2023-05-20T07:55:11.636Z,96531.13
2023-05-20T07:57:43.588Z,96473.13
2023-05-20T08:00:14.730Z,96501.38
2023-05-20T08:02:46.421Z,96457.28
2023-05-20T08:05:22.703Z,96427.13
2023-05-20T08:07:50.995Z,96505.94
2023-05-20T08:10:20.978Z,96545.72
2023-05-20T08:12:50.814Z,96521.84
2023-05-20T08:15:19.501Z,96456.88
2023-05-20T08:17:48.929Z,96481.34
2023-05-20T08:20:17.169Z,96491.88
2023-05-20T08:22:45.576Z,96459.66
2023-05-20T08:25:13.937Z,96351.50
2023-05-20T08:27:42.251Z,96469.50
2023-05-20T08:30:13.028Z,96466.50
2023-05-20T08:32:41.324Z,96497.41
2023-05-20T08:35:10.488Z,96473.34
2023-05-20T08:37:38.831Z,96458.44
2023-05-20T08:40:09.852Z,96482.81
2023-05-20T08:42:42.365Z,96497.03
2023-05-20T08:45:13.871Z,96471.91
2023-05-20T08:47:44.169Z,96480.94
2023-05-20T08:50:15.079Z,96458.31
2023-05-20T08:52:45.986Z,96462.06
2023-05-20T08:55:26.997Z,96476.09
2023-05-20T08:57:56.088Z,96460.31
2023-05-20T09:00:29.026Z,96478.09
2023-05-20T09:03:00.749Z,96508.00
2023-05-20T09:05:29.956Z,96443.25
2023-05-20T09:08:07.858Z,96485.63
2023-05-20T09:10:37.351Z,96436.75
2023-05-20T09:13:06.789Z,96479.34
2023-05-20T09:15:37.835Z,96495.78
2023-05-20T09:18:09.216Z,96511.81
2023-05-20T09:20:41.139Z,96505.44
2023-05-20T09:23:11.282Z,96467.97
2023-05-20T09:25:39.907Z,96495.00
2023-05-20T09:28:09.372Z,96470.03
2023-05-20T09:30:38.975Z,96579.31
2023-05-20T09:33:09.343Z,96505.91
2023-05-20T09:35:38.612Z,96457.25
2023-05-20T09:38:08.539Z,96390.09
2023-05-20T09:40:40.661Z,96472.50
2023-05-20T09:43:11.397Z,96449.34
2023-05-20T09:45:41.560Z,96475.78
2023-05-20T09:48:13.101Z,96501.19
2023-05-20T09:50:42.974Z,96434.13
2023-05-20T09:53:13.233Z,96471.66
2023-05-20T09:55:41.949Z,96450.28
2023-05-20T09:58:16.239Z,96434.81
2023-05-20T10:00:46.456Z,96419.09
2023-05-20T10:03:15.026Z,96486.53
2023-05-20T10:05:50.312Z,96441.56
2023-05-20T10:08:44.181Z,96403.28
2023-05-20T10:11:28.215Z,96454.50
2023-05-20T10:14:20.227Z,96463.00
2023-05-20T10:16:55.799Z,96449.50
2023-05-20T10:19:30.978Z,96407.59
2023-05-20T10:22:02.229Z,96411.81
2023-05-20T10:24:35.069Z,96446.59
2023-05-20T10:27:05.810Z,96394.03
2023-05-20T10:29:45.544Z,96351.28
2023-05-20T10:32:26.989Z,96379.78
2023-05-20T10:35:01.963Z,96389.63
2023-05-20T10:37:33.095Z,96393.06
2023-05-20T10:40:09.384Z,96395.06
2023-05-20T10:42:38.267Z,96435.28
2023-05-20T10:45:08.603Z,96404.75
2023-05-20T10:47:38.857Z,96372.19
2023-05-20T10:50:08.436Z,96404.53
2023-05-20T10:52:39.590Z,96377.03
2023-05-20T10:55:09.483Z,96368.59
2023-05-20T10:57:37.805Z,96419.63
2023-05-20T11:00:10.791Z,96347.28
2023-05-20T11:02:42.054Z,96387.41
2023-05-20T11:05:14.617Z,96388.56
2023-05-20T11:07:42.913Z,96378.97
2023-05-20T11:10:12.128Z,96263.28
2023-05-20T11:12:41.464Z,96415.44
2023-05-20T11:15:13.755Z,96384.22
2023-05-20T11:17:55.528Z,96372.38
2023-05-20T11:20:24.920Z,96327.59
2023-05-20T11:22:53.636Z,96318.81
2023-05-20T11:25:23.302Z,96311.44
2023-05-20T11:27:52.702Z,96312.16
2023-05-20T11:30:21.570Z,96372.88
2023-05-20T11:33:00.876Z,96403.59
2023-05-20T11:35:32.273Z,96376.38
2023-05-20T11:38:06.287Z,96341.94
2023-05-20T11:40:46.297Z,96335.41
2023-05-20T11:43:17.829Z,96349.22
2023-05-20T11:45:49.253Z,96411.63
2023-05-20T11:48:20.383Z,96263.91
2023-05-20T11:50:49.644Z,96348.06
2023-05-20T11:53:19.951Z,96363.44
2023-05-20T11:55:52.149Z,96344.56
2023-05-20T11:58:21.930Z,96264.63
2023-05-20T12:00:55.148Z,96311.25
2023-05-20T12:03:31.983Z,96360.09
2023-05-20T12:06:04.493Z,96356.34
2023-05-20T12:08:33.121Z,96371.66
2023-05-20T12:11:01.348Z,96329.00
2023-05-20T12:13:29.619Z,96317.47
2023-05-20T12:15:57.953Z,96289.44
2023-05-20T12:18:26.211Z,96327.78
2023-05-20T12:20:55.843Z,96310.13
2023-05-20T12:23:24.101Z,96335.28
2023-05-20T12:25:52.399Z,96266.47
2023-05-20T12:28:21.133Z,96280.59
2023-05-20T12:30:49.408Z,96292.34
2023-05-20T12:33:17.672Z,96287.31
2023-05-20T12:35:46.798Z,96327.88
2023-05-20T12:38:16.505Z,96343.91
2023-05-20T12:40:44.774Z,96278.03
2023-05-20T12:43:13.183Z,96325.03
2023-05-20T12:45:41.470Z,96284.72
2023-05-20T12:48:09.816Z,96365.13
2023-05-20T12:50:38.266Z,96276.81
2023-05-20T12:53:06.570Z,96292.91
2023-05-20T12:55:36.264Z,96318.47
2023-05-20T12:58:04.569Z,96333.53
2023-05-20T13:00:32.940Z,96271.66
2023-05-20T13:03:01.694Z,96298.19
2023-05-20T13:05:30.090Z,96332.13
2023-05-20T13:07:58.325Z,96354.31
2023-05-20T13:10:26.949Z,96304.09
2023-05-20T13:12:58.128Z,96306.53
2023-05-20T13:15:26.425Z,96316.72
2023-05-20T13:17:55.293Z,96278.28
2023-05-20T13:20:23.722Z,96370.16
2023-05-20T13:22:52.463Z,96328.53
2023-05-20T13:25:20.813Z,96300.53
2023-05-20T13:27:49.046Z,96329.81
2023-05-20T13:30:18.846Z,96312.41
2023-05-20T13:32:47.101Z,96311.97
2023-05-20T13:35:16.853Z,96321.53
2023-05-20T13:37:45.260Z,96360.44
2023-05-20T13:40:14.528Z,96305.94
2023-05-20T13:42:42.809Z,96271.09
2023-05-20T13:45:12.338Z,96297.84
2023-05-20T13:47:42.021Z,96295.84
2023-05-20T13:50:12.024Z,96225.78
2023-05-20T13:52:40.801Z,96278.16
2023-05-20T13:55:09.918Z,96267.53
2023-05-20T13:57:38.195Z,96266.81
2023-05-20T14:00:08.477Z,96300.91
2023-05-20T14:02:37.136Z,96240.06
2023-05-20T14:05:08.605Z,96207.50
2023-05-20T14:07:37.123Z,96262.94
2023-05-20T14:10:06.904Z,96298.75
2023-05-20T14:12:35.167Z,96312.31
2023-05-20T14:15:03.497Z,96259.25
2023-05-20T14:17:31.766Z,96280.59
2023-05-20T14:20:00.750Z,96291.53
2023-05-20T14:22:30.351Z,96269.91
2023-05-20T14:24:59.188Z,96219.41
2023-05-20T14:27:27.486Z,96227.88
2023-05-20T14:29:55.803Z,96271.63
2023-05-20T14:32:24.241Z,96229.22
2023-05-20T14:34:53.806Z,96274.13
2023-05-20T14:37:23.011Z,96221.28
2023-05-20T14:39:52.548Z,96222.13
2023-05-20T14:42:20.842Z,96198.13
2023-05-20T14:44:49.773Z,96205.94
2023-05-20T14:47:21.459Z,96221.75
2023-05-20T14:49:50.550Z,96213.47
2023-05-20T14:52:19.088Z,96253.75
2023-05-20T14:54:47.861Z,96260.94
2023-05-20T14:57:17.684Z,96238.75
2023-05-20T14:59:46.199Z,96238.59
2023-05-20T15:02:15.854Z,96171.25
2023-05-20T15:04:46.303Z,96203.53
2023-05-20T15:07:14.947Z,96199.19
2023-05-20T15:09:43.753Z,96240.16
2023-05-20T15:12:12.542Z,96203.63
2023-05-20T15:14:42.290Z,96230.34
2023-05-20T15:17:10.672Z,96231.31
2023-05-20T15:19:41.385Z,96226.50
2023-05-20T15:24:38.086Z,96215.63
2023-05-20T15:27:06.902Z,96188.25
2023-05-20T15:29:35.171Z,96203.63
2023-05-20T15:32:05.336Z,96170.41
2023-05-20T15:34:33.614Z,96212.72
2023-05-20T15:37:01.929Z,96244.41
2023-05-20T15:39:30.262Z,96229.41
2023-05-20T15:41:59.577Z,96194.44
2023-05-20T15:44:28.811Z,96249.38
2023-05-20T15:46:57.218Z,96271.59
2023-05-20T15:49:26.890Z,96261.66
2023-05-20T15:52:03.040Z,96184.88
2023-05-20T15:54:33.193Z,96228.53
2023-05-20T15:57:02.583Z,96267.50
2023-05-20T15:59:31.039Z,96242.78
2023-05-20T16:02:00.036Z,96219.13
2023-05-20T16:04:29.849Z,96224.22
2023-05-20T16:06:58.497Z,96204.00
2023-05-20T16:09:26.731Z,96203.94
2023-05-20T16:11:56.105Z,96210.94
2023-05-20T16:14:24.338Z,96251.91
2023-05-20T16:16:52.676Z,96242.97
2023-05-20T16:19:21.045Z,96192.81
2023-05-20T16:21:50.860Z,96198.34
2023-05-20T16:24:19.115Z,96189.66
2023-05-20T16:26:47.328Z,96233.53
2023-05-20T16:29:16.648Z,96225.09
2023-05-20T16:31:46.845Z,96239.28
2023-05-20T16:34:16.855Z,96166.81
2023-05-20T16:36:46.387Z,96213.03
2023-05-20T16:39:16.564Z,96252.25
2023-05-20T16:41:45.087Z,96218.03
2023-05-20T16:44:13.343Z,96236.78
2023-05-20T16:46:47.695Z,96177.91
2023-05-20T16:49:16.681Z,96240.06
2023-05-20T16:51:45.021Z,96237.19
2023-05-20T16:54:13.333Z,96223.03
2023-05-20T16:56:42.927Z,96219.34
2023-05-20T16:59:14.687Z,96253.63
2023-05-20T17:01:42.992Z,96226.34
2023-05-20T17:04:11.642Z,96223.34
2023-05-20T17:06:40.023Z,96247.56
2023-05-20T17:09:08.853Z,96221.34
2023-05-20T17:11:37.209Z,96195.31
2023-05-20T17:14:06.830Z,96239.72
2023-05-20T17:16:35.747Z,96187.28
2023-05-20T17:19:04.076Z,96233.84
2023-05-20T17:21:32.392Z,96208.59
2023-05-20T17:24:00.744Z,96235.25
2023-05-20T17:26:29.071Z,96222.16
2023-05-20T17:28:57.307Z,96202.50
2023-05-20T17:31:26.948Z,96182.31
2023-05-20T17:33:55.249Z,96182.31
2023-05-20T17:36:23.750Z,96253.97
2023-05-20T17:38:52.566Z,96191.94
2023-05-20T17:41:21.804Z,96215.50
2023-05-20T17:43:50.070Z,96237.41
2023-05-20T17:46:18.383Z,96287.56
2023-05-20T17:48:47.953Z,96248.66
2023-05-20T17:51:16.940Z,96221.53
2023-05-20T17:53:45.755Z,96182.88
2023-05-20T17:56:14.576Z,96241.84
2023-05-20T17:58:44.983Z,96274.34
2023-05-20T18:01:13.341Z,96244.00
2023-05-20T18:04:08.625Z,96219.22
2023-05-20T18:06:37.874Z,96245.53
2023-05-20T18:09:06.584Z,96212.81
2023-05-20T18:11:36.014Z,96196.31
2023-05-20T18:14:04.931Z,96289.09
2023-05-20T18:16:33.362Z,96263.13
2023-05-20T18:19:02.864Z,96311.13
2023-05-20T18:21:32.645Z,96256.81
2023-05-20T18:24:01.002Z,96243.69
2023-05-20T18:26:29.210Z,96266.81
2023-05-20T18:28:57.862Z,96273.97
2023-05-20T18:31:26.411Z,96284.19
2023-05-20T18:33:54.769Z,96301.50
2023-05-20T18:36:23.064Z,96231.00
2023-05-20T18:38:52.624Z,96264.09
2023-05-20T18:41:22.208Z,96283.53
2023-05-20T18:43:51.945Z,96266.53
2023-05-20T18:46:20.238Z,96240.41
2023-05-20T18:48:48.481Z,96270.63
2023-05-20T18:51:16.719Z,96258.66
2023-05-20T18:53:45.026Z,96282.03
2023-05-20T18:56:14.774Z,96132.41
2023-05-20T18:58:43.484Z,96269.19
2023-05-20T19:01:11.734Z,96299.78
2023-05-20T19:03:44.188Z,96268.00
2023-05-20T19:06:13.830Z,96312.66
2023-05-20T19:08:42.115Z,96270.41
2023-05-20T19:11:10.533Z,96325.78
2023-05-20T19:13:40.181Z,96303.72
2023-05-20T19:16:08.902Z,96282.94
2023-05-20T19:18:37.154Z,96265.31
2023-05-20T19:21:05.658Z,96271.53
2023-05-20T19:23:33.934Z,96302.53
2023-05-20T19:26:02.238Z,96306.25
2023-05-20T19:28:30.503Z,96290.28
2023-05-20T19:31:00.155Z,96294.28
2023-05-20T19:33:28.476Z,96256.03
2023-05-20T19:35:57.749Z,96266.78
2023-05-20T19:38:25.977Z,96247.81
2023-05-20T19:40:54.202Z,96276.47
2023-05-20T19:43:23.415Z,96236.75
2023-05-20T19:45:51.708Z,96295.78
2023-05-20T19:48:22.454Z,96319.22
2023-05-20T19:50:50.761Z,96274.09
2023-05-20T19:53:20.934Z,96315.63
2023-05-20T19:55:49.335Z,96265.78
2023-05-20T19:58:17.907Z,96309.72
2023-05-20T20:00:46.167Z,96322.91
2023-05-20T20:03:14.441Z,96334.16
2023-05-20T20:05:44.201Z,96210.31
2023-05-20T20:08:12.488Z,96294.00
2023-05-20T20:10:40.808Z,96279.78
2023-05-20T20:13:09.567Z,96238.75
2023-05-20T20:15:37.951Z,96268.97
2023-05-20T20:18:06.502Z,96309.69
2023-05-20T20:20:39.807Z,96300.63
2023-05-20T20:23:10.680Z,96303.75
2023-05-20T20:25:41.213Z,96279.75
2023-05-20T20:28:11.270Z,96263.59
2023-05-20T20:30:39.464Z,96272.19
2023-05-20T20:33:09.604Z,96312.31
2023-05-20T20:35:38.539Z,96275.78
2023-05-20T20:38:11.806Z,96283.09
2023-05-20T20:40:41.642Z,96315.28
2023-05-20T20:43:20.530Z,96280.88
2023-05-20T20:45:50.758Z,96309.53
2023-05-20T20:48:19.139Z,96268.59
2023-05-20T20:50:48.237Z,96275.63
2023-05-20T20:53:18.028Z,96142.69
2023-05-20T20:55:47.118Z,96278.69
2023-05-20T20:58:15.861Z,96292.63
2023-05-20T21:00:45.791Z,96251.78
2023-05-20T21:03:14.085Z,96305.81
2023-05-20T21:05:42.305Z,96276.44
2023-05-20T21:08:13.269Z,96263.53
2023-05-20T21:10:42.963Z,96276.44
2023-05-20T21:13:11.221Z,96286.81
2023-05-20T21:15:39.446Z,96272.41
2023-05-20T21:18:07.647Z,96317.50
2023-05-20T21:20:35.835Z,96346.19
2023-05-20T21:23:04.140Z,96264.91
2023-05-20T21:25:32.411Z,96240.78
2023-05-20T21:28:01.966Z,96313.19
2023-05-20T21:30:30.397Z,96206.75
2023-05-20T21:32:58.681Z,96266.19
2023-05-20T21:35:27.009Z,96273.09
2023-05-20T21:37:55.178Z,96262.16
2023-05-20T21:40:23.503Z,96301.44
2023-05-20T21:42:52.170Z,96263.72
2023-05-20T21:45:21.829Z,96267.03
2023-05-20T21:47:50.187Z,96237.56
2023-05-20T21:50:18.399Z,96240.84
2023-05-20T21:52:46.677Z,96236.75
2023-05-20T21:55:15.023Z,96239.69
2023-05-20T21:57:43.373Z,96259.81
2023-05-20T22:00:15.196Z,96240.06
2023-05-20T22:02:44.999Z,96211.47
2023-05-20T22:05:13.472Z,96220.88
2023-05-20T22:07:43.329Z,96208.59
2023-05-20T22:10:13.671Z,96169.41
2023-05-20T22:12:43.239Z,96223.16
2023-05-20T22:15:12.627Z,96234.38
2023-05-20T22:17:41.437Z,96222.53
2023-05-20T22:20:13.482Z,96248.94
2023-05-20T22:22:41.817Z,96210.16
2023-05-20T22:25:11.226Z,96246.53
2023-05-20T22:27:42.873Z,96228.06
2023-05-20T22:30:12.580Z,96246.84
2023-05-20T22:32:41.396Z,96225.66
2023-05-20T22:35:13.081Z,96222.44
2023-05-20T22:37:41.796Z,96249.72
2023-05-20T22:40:11.746Z,96195.25
2023-05-20T22:42:40.066Z,96220.78
2023-05-20T22:45:10.101Z,96162.44
2023-05-20T22:47:38.411Z,96159.09
2023-05-20T22:50:08.793Z,96207.75
2023-05-20T22:52:39.224Z,96225.38
2023-05-20T22:55:08.987Z,96177.44
2023-05-20T22:57:37.643Z,96155.03
2023-05-20T23:00:08.182Z,96186.56
2023-05-20T23:02:36.543Z,96163.13
2023-05-20T23:05:08.855Z,96176.56
2023-05-20T23:07:38.937Z,96202.56
2023-05-20T23:10:08.407Z,96126.31
2023-05-20T23:12:36.804Z,96064.75
2023-05-20T23:15:05.589Z,96131.78
2023-05-20T23:17:33.800Z,96171.47
2023-05-20T23:20:09.890Z,96189.88
2023-05-20T23:22:39.710Z,96209.13
2023-05-20T23:25:09.328Z,96170.91
2023-05-20T23:27:37.560Z,96109.88
2023-05-20T23:30:08.726Z,96205.06
2023-05-20T23:32:37.217Z,96102.38
2023-05-20T23:35:06.745Z,96148.75
2023-05-20T23:37:35.507Z,96145.00
2023-05-20T23:40:06.559Z,96171.19
2023-05-20T23:42:34.842Z,96155.66
2023-05-20T23:45:04.638Z,96209.59
2023-05-20T23:47:34.277Z,96119.66
2023-05-20T23:50:02.525Z,96177.00
2023-05-20T23:52:31.007Z,96194.56
2023-05-20T23:55:00.204Z,96165.13
2023-05-20T23:57:29.934Z,96184.34
2023-05-20T23:59:58.157Z,96180.47
